sensor_id;sensor_type;location;lat;lon;timestamp;pressure;altitude;pressure_sealevel;temperature;humidity
48874;BME280;66155;46.204;5.220;2024-03-25T00:04:24;98179.38;;;6.80;55.55
48874;BME280;66155;46.204;5.220;2024-03-25T00:09:24;98171.03;;;6.83;55.45
48874;BME280;66155;46.204;5.220;2024-03-25T00:14:25;98164.19;;;6.88;55.18
48874;BME280;66155;46.204;5.220;2024-03-25T00:19:25;98157.06;;;6.90;55.19
48874;BME280;66155;46.204;5.220;2024-03-25T00:24:26;98155.50;;;6.89;55.30
48874;BME280;66155;46.204;5.220;2024-03-25T00:29:27;98155.72;;;6.82;55.38
48874;BME280;66155;46.204;5.220;2024-03-25T00:34:27;98134.03;;;6.84;55.23
48874;BME280;66155;46.204;5.220;2024-03-25T00:39:27;98126.41;;;6.88;55.21
48874;BME280;66155;46.204;5.220;2024-03-25T00:44:29;98129.63;;;6.87;55.08
48874;BME280;66155;46.204;5.220;2024-03-25T00:49:29;98127.97;;;6.89;55.01
48874;BME280;66155;46.204;5.220;2024-03-25T00:54:30;98120.59;;;6.86;55.36
48874;BME280;66155;46.204;5.220;2024-03-25T00:59:30;98117.06;;;6.86;55.41
48874;BME280;66155;46.204;5.220;2024-03-25T01:04:31;98112.78;;;6.85;55.48
48874;BME280;66155;46.204;5.220;2024-03-25T01:09:31;98109.69;;;6.83;55.54
48874;BME280;66155;46.204;5.220;2024-03-25T01:14:32;98097.56;;;6.80;55.52
48874;BME280;66155;46.204;5.220;2024-03-25T01:19:32;98101.09;;;6.81;55.35
48874;BME280;66155;46.204;5.220;2024-03-25T01:24:32;98095.47;;;6.72;56.09
48874;BME280;66155;46.204;5.220;2024-03-25T01:29:33;98091.38;;;6.51;56.36
48874;BME280;66155;46.204;5.220;2024-03-25T01:34:33;98080.81;;;6.49;56.09
48874;BME280;66155;46.204;5.220;2024-03-25T01:39:34;98066.72;;;6.47;56.25
48874;BME280;66155;46.204;5.220;2024-03-25T01:44:34;98059.69;;;6.46;56.10
48874;BME280;66155;46.204;5.220;2024-03-25T01:49:34;98041.75;;;6.42;56.06
48874;BME280;66155;46.204;5.220;2024-03-25T01:54:35;98032.38;;;6.39;56.23
48874;BME280;66155;46.204;5.220;2024-03-25T01:59:35;98016.63;;;6.40;56.08
48874;BME280;66155;46.204;5.220;2024-03-25T02:04:37;98021.28;;;6.30;56.60
48874;BME280;66155;46.204;5.220;2024-03-25T02:09:38;98017.38;;;6.15;56.76
48874;BME280;66155;46.204;5.220;2024-03-25T02:14:39;98013.88;;;6.15;56.56
48874;BME280;66155;46.204;5.220;2024-03-25T02:19:41;98015.84;;;6.14;57.00
48874;BME280;66155;46.204;5.220;2024-03-25T02:24:42;97998.66;;;5.97;57.21
48874;BME280;66155;46.204;5.220;2024-03-25T02:29:43;97996.47;;;5.76;57.62
48874;BME280;66155;46.204;5.220;2024-03-25T02:34:47;97987.19;;;5.57;57.60
48874;BME280;66155;46.204;5.220;2024-03-25T02:39:48;97970.66;;;5.45;57.96
48874;BME280;66155;46.204;5.220;2024-03-25T02:44:49;97967.47;;;5.46;57.81
48874;BME280;66155;46.204;5.220;2024-03-25T02:49:50;97961.34;;;5.55;57.79
48874;BME280;66155;46.204;5.220;2024-03-25T02:54:50;97935.19;;;5.50;57.46
48874;BME280;66155;46.204;5.220;2024-03-25T02:59:51;97941.78;;;5.53;57.47
48874;BME280;66155;46.204;5.220;2024-03-25T03:04:51;97938.28;;;5.52;57.51
48874;BME280;66155;46.204;5.220;2024-03-25T03:09:52;97934.66;;;5.55;57.24
48874;BME280;66155;46.204;5.220;2024-03-25T03:14:52;97908.16;;;5.49;57.48
48874;BME280;66155;46.204;5.220;2024-03-25T03:19:53;97907.03;;;5.46;57.86
48874;BME280;66155;46.204;5.220;2024-03-25T03:24:53;97894.84;;;5.47;57.48
48874;BME280;66155;46.204;5.220;2024-03-25T03:29:53;97883.88;;;5.47;57.34
48874;BME280;66155;46.204;5.220;2024-03-25T03:34:54;97887.50;;;5.44;57.55
48874;BME280;66155;46.204;5.220;2024-03-25T03:39:54;97876.50;;;5.44;58.22
48874;BME280;66155;46.204;5.220;2024-03-25T03:44:54;97857.72;;;5.43;57.63
48874;BME280;66155;46.204;5.220;2024-03-25T03:49:55;97855.63;;;5.47;58.02
48874;BME280;66155;46.204;5.220;2024-03-25T03:54:57;97857.94;;;5.48;57.50
48874;BME280;66155;46.204;5.220;2024-03-25T03:59:58;97856.31;;;5.51;57.83
48874;BME280;66155;46.204;5.220;2024-03-25T04:04:58;97848.50;;;5.49;57.83
48874;BME280;66155;46.204;5.220;2024-03-25T04:09:58;97854.00;;;5.49;58.04
48874;BME280;66155;46.204;5.220;2024-03-25T04:15:04;97848.69;;;5.42;57.60
48874;BME280;66155;46.204;5.220;2024-03-25T04:20:04;97848.59;;;5.33;58.12
48874;BME280;66155;46.204;5.220;2024-03-25T04:25:11;97847.81;;;5.33;58.13
48874;BME280;66155;46.204;5.220;2024-03-25T04:30:12;97838.81;;;5.32;58.08
48874;BME280;66155;46.204;5.220;2024-03-25T04:35:12;97828.16;;;5.34;58.11
48874;BME280;66155;46.204;5.220;2024-03-25T04:40:12;97820.25;;;5.36;58.09
48874;BME280;66155;46.204;5.220;2024-03-25T04:45:19;97816.50;;;5.30;57.97
48874;BME280;66155;46.204;5.220;2024-03-25T04:50:19;97821.97;;;5.30;58.22
48874;BME280;66155;46.204;5.220;2024-03-25T04:55:19;97816.72;;;5.23;58.22
48874;BME280;66155;46.204;5.220;2024-03-25T05:00:20;97805.41;;;5.21;58.12
48874;BME280;66155;46.204;5.220;2024-03-25T05:05:20;97806.06;;;5.25;58.05
48874;BME280;66155;46.204;5.220;2024-03-25T05:10:21;97789.72;;;5.22;58.28
48874;BME280;66155;46.204;5.220;2024-03-25T05:15:21;97781.56;;;5.18;58.20
48874;BME280;66155;46.204;5.220;2024-03-25T05:20:21;97781.66;;;5.14;58.40
48874;BME280;66155;46.204;5.220;2024-03-25T05:25:22;97774.31;;;5.11;58.59
48874;BME280;66155;46.204;5.220;2024-03-25T05:30:28;97771.25;;;5.09;58.40
48874;BME280;66155;46.204;5.220;2024-03-25T05:35:29;97759.25;;;5.03;58.74
48874;BME280;66155;46.204;5.220;2024-03-25T05:40:30;97774.38;;;4.95;59.05
48874;BME280;66155;46.204;5.220;2024-03-25T05:45:31;97773.66;;;4.79;59.70
48874;BME280;66155;46.204;5.220;2024-03-25T05:50:31;97789.50;;;4.42;60.89
48874;BME280;66155;46.204;5.220;2024-03-25T05:55:32;97777.91;;;4.06;62.50
48874;BME280;66155;46.204;5.220;2024-03-25T06:00:32;97778.19;;;3.79;65.44
48874;BME280;66155;46.204;5.220;2024-03-25T06:05:32;97759.78;;;3.80;62.12
48874;BME280;66155;46.204;5.220;2024-03-25T06:10:39;97754.53;;;4.01;62.14
48874;BME280;66155;46.204;5.220;2024-03-25T06:15:39;97742.63;;;4.24;62.57
48874;BME280;66155;46.204;5.220;2024-03-25T06:20:40;97742.25;;;4.38;60.72
48874;BME280;66155;46.204;5.220;2024-03-25T06:25:40;97750.94;;;4.49;61.01
48874;BME280;66155;46.204;5.220;2024-03-25T06:30:40;97718.63;;;4.57;60.42
48874;BME280;66155;46.204;5.220;2024-03-25T06:36:00;97713.97;;;4.83;59.56
48874;BME280;66155;46.204;5.220;2024-03-25T06:41:00;97706.88;;;4.98;59.32
48874;BME280;66155;46.204;5.220;2024-03-25T06:46:00;97703.59;;;5.15;59.32
48874;BME280;66155;46.204;5.220;2024-03-25T06:51:01;97694.84;;;5.33;59.24
48874;BME280;66155;46.204;5.220;2024-03-25T06:56:04;97708.66;;;5.42;59.13
48874;BME280;66155;46.204;5.220;2024-03-25T07:01:06;97689.44;;;5.55;58.84
48874;BME280;66155;46.204;5.220;2024-03-25T07:06:09;97682.84;;;5.65;58.62
48874;BME280;66155;46.204;5.220;2024-03-25T07:11:10;97684.34;;;5.79;58.45
48874;BME280;66155;46.204;5.220;2024-03-25T07:16:10;97670.47;;;5.95;58.39
48874;BME280;66155;46.204;5.220;2024-03-25T07:21:10;97668.03;;;6.09;58.45
48874;BME280;66155;46.204;5.220;2024-03-25T07:26:11;97645.53;;;6.24;58.07
48874;BME280;66155;46.204;5.220;2024-03-25T07:31:11;97649.91;;;6.34;58.09
48874;BME280;66155;46.204;5.220;2024-03-25T07:36:12;97657.31;;;6.46;58.03
48874;BME280;66155;46.204;5.220;2024-03-25T07:41:12;97644.72;;;6.57;57.75
48874;BME280;66155;46.204;5.220;2024-03-25T07:46:13;97649.56;;;6.75;57.99
48874;BME280;66155;46.204;5.220;2024-03-25T07:51:13;97657.00;;;6.96;57.38
48874;BME280;66155;46.204;5.220;2024-03-25T07:56:15;97641.41;;;6.93;57.26
48874;BME280;66155;46.204;5.220;2024-03-25T08:01:15;97632.06;;;6.91;57.50
48874;BME280;66155;46.204;5.220;2024-03-25T08:06:16;97625.28;;;6.83;57.81
48874;BME280;66155;46.204;5.220;2024-03-25T08:11:16;97628.50;;;6.81;58.11
48874;BME280;66155;46.204;5.220;2024-03-25T08:16:16;97611.69;;;6.88;58.06
48874;BME280;66155;46.204;5.220;2024-03-25T08:21:17;97616.00;;;6.89;58.11
48874;BME280;66155;46.204;5.220;2024-03-25T08:26:17;97605.94;;;6.95;58.21
48874;BME280;66155;46.204;5.220;2024-03-25T08:31:18;97611.94;;;7.12;57.79
48874;BME280;66155;46.204;5.220;2024-03-25T08:36:18;97604.53;;;7.31;57.78
48874;BME280;66155;46.204;5.220;2024-03-25T08:41:19;97605.63;;;7.42;57.81
48874;BME280;66155;46.204;5.220;2024-03-25T08:46:19;97596.03;;;7.56;57.45
48874;BME280;66155;46.204;5.220;2024-03-25T08:51:19;97584.09;;;7.68;57.33
48874;BME280;66155;46.204;5.220;2024-03-25T08:56:20;97578.13;;;7.70;57.44
48874;BME280;66155;46.204;5.220;2024-03-25T09:01:21;97562.06;;;7.68;57.41
48874;BME280;66155;46.204;5.220;2024-03-25T09:06:21;97564.03;;;7.77;57.22
48874;BME280;66155;46.204;5.220;2024-03-25T09:11:22;97545.50;;;7.86;57.03
48874;BME280;66155;46.204;5.220;2024-03-25T09:16:25;97557.59;;;7.98;57.10
48874;BME280;66155;46.204;5.220;2024-03-25T09:21:25;97552.25;;;8.04;56.82
48874;BME280;66155;46.204;5.220;2024-03-25T09:26:27;97555.91;;;8.19;56.63
48874;BME280;66155;46.204;5.220;2024-03-25T09:31:27;97525.25;;;8.26;56.47
48874;BME280;66155;46.204;5.220;2024-03-25T09:36:28;97523.56;;;8.37;56.54
48874;BME280;66155;46.204;5.220;2024-03-25T09:41:29;97495.00;;;8.50;56.22
48874;BME280;66155;46.204;5.220;2024-03-25T09:46:36;97486.16;;;8.78;56.31
48874;BME280;66155;46.204;5.220;2024-03-25T09:51:37;97475.72;;;9.06;55.83
48874;BME280;66155;46.204;5.220;2024-03-25T09:56:38;97454.97;;;9.34;55.73
48874;BME280;66155;46.204;5.220;2024-03-25T10:01:39;97434.47;;;9.65;55.27
48874;BME280;66155;46.204;5.220;2024-03-25T10:06:40;97423.91;;;9.93;55.23
48874;BME280;66155;46.204;5.220;2024-03-25T10:11:40;97412.47;;;10.14;54.08
48874;BME280;66155;46.204;5.220;2024-03-25T10:16:41;97415.75;;;10.48;54.47
48874;BME280;66155;46.204;5.220;2024-03-25T10:21:41;97397.63;;;10.82;53.57
48874;BME280;66155;46.204;5.220;2024-03-25T10:26:42;97382.88;;;11.10;53.45
48874;BME280;66155;46.204;5.220;2024-03-25T10:31:43;97371.09;;;11.36;52.87
48874;BME280;66155;46.204;5.220;2024-03-25T10:36:43;97355.56;;;11.44;52.37
48874;BME280;66155;46.204;5.220;2024-03-25T10:41:46;97352.50;;;11.67;52.16
48874;BME280;66155;46.204;5.220;2024-03-25T10:46:51;97337.00;;;11.81;49.93
48874;BME280;66155;46.204;5.220;2024-03-25T10:51:54;97327.44;;;11.82;51.38
48874;BME280;66155;46.204;5.220;2024-03-25T10:56:55;97324.56;;;11.97;50.91
48874;BME280;66155;46.204;5.220;2024-03-25T11:01:56;97309.69;;;12.00;50.13
48874;BME280;66155;46.204;5.220;2024-03-25T11:07:14;97303.97;;;12.09;49.67
48874;BME280;66155;46.204;5.220;2024-03-25T11:12:14;97291.69;;;12.21;49.33
48874;BME280;66155;46.204;5.220;2024-03-25T11:17:15;97275.50;;;12.20;49.15
48874;BME280;66155;46.204;5.220;2024-03-25T11:22:16;97275.31;;;12.29;49.06
48874;BME280;66155;46.204;5.220;2024-03-25T11:27:21;97257.38;;;12.30;49.21
48874;BME280;66155;46.204;5.220;2024-03-25T11:32:22;97250.63;;;12.42;49.28
48874;BME280;66155;46.204;5.220;2024-03-25T11:37:22;97228.41;;;12.42;48.82
48874;BME280;66155;46.204;5.220;2024-03-25T11:42:23;97221.09;;;12.39;45.67
48874;BME280;66155;46.204;5.220;2024-03-25T11:47:24;97207.22;;;12.39;46.06
48874;BME280;66155;46.204;5.220;2024-03-25T11:52:30;97190.34;;;12.48;46.20
48874;BME280;66155;46.204;5.220;2024-03-25T11:57:30;97179.25;;;12.59;46.78
48874;BME280;66155;46.204;5.220;2024-03-25T12:02:31;97169.44;;;12.63;45.88
48874;BME280;66155;46.204;5.220;2024-03-25T12:07:32;97165.13;;;12.62;46.83
48874;BME280;66155;46.204;5.220;2024-03-25T12:12:33;97148.97;;;12.55;45.29
48874;BME280;66155;46.204;5.220;2024-03-25T12:17:35;97146.97;;;12.61;42.52
48874;BME280;66155;46.204;5.220;2024-03-25T12:22:36;97125.75;;;12.75;42.12
48874;BME280;66155;46.204;5.220;2024-03-25T12:27:37;97110.91;;;12.89;41.69
48874;BME280;66155;46.204;5.220;2024-03-25T12:32:40;97093.97;;;13.04;41.11
48874;BME280;66155;46.204;5.220;2024-03-25T12:37:45;97090.97;;;13.13;37.76
48874;BME280;66155;46.204;5.220;2024-03-25T12:42:51;97073.50;;;13.29;38.16
48874;BME280;66155;46.204;5.220;2024-03-25T12:47:52;97070.94;;;13.48;39.08
48874;BME280;66155;46.204;5.220;2024-03-25T12:52:53;97047.13;;;13.69;38.80
48874;BME280;66155;46.204;5.220;2024-03-25T12:57:53;97039.97;;;13.79;37.74
48874;BME280;66155;46.204;5.220;2024-03-25T13:02:53;97032.63;;;13.87;38.19
48874;BME280;66155;46.204;5.220;2024-03-25T13:07:55;97015.06;;;14.09;37.78
48874;BME280;66155;46.204;5.220;2024-03-25T13:12:56;97012.09;;;14.42;38.23
48874;BME280;66155;46.204;5.220;2024-03-25T13:17:57;97011.91;;;14.70;38.66
48874;BME280;66155;46.204;5.220;2024-03-25T13:22:57;97003.78;;;15.02;37.24
48874;BME280;66155;46.204;5.220;2024-03-25T13:27:59;96989.25;;;15.33;38.40
48874;BME280;66155;46.204;5.220;2024-03-25T13:33:00;96983.69;;;15.58;38.53
48874;BME280;66155;46.204;5.220;2024-03-25T13:38:00;96971.50;;;15.79;38.22
48874;BME280;66155;46.204;5.220;2024-03-25T13:43:01;96966.06;;;15.87;37.68
48874;BME280;66155;46.204;5.220;2024-03-25T13:48:01;96949.47;;;15.95;37.57
48874;BME280;66155;46.204;5.220;2024-03-25T13:53:02;96943.88;;;15.76;36.87
48874;BME280;66155;46.204;5.220;2024-03-25T13:58:02;96931.97;;;15.75;36.36
48874;BME280;66155;46.204;5.220;2024-03-25T14:03:03;96918.75;;;15.95;36.39
48874;BME280;66155;46.204;5.220;2024-03-25T14:08:04;96913.44;;;16.10;37.11
48874;BME280;66155;46.204;5.220;2024-03-25T14:13:04;96900.16;;;16.16;35.80
48874;BME280;66155;46.204;5.220;2024-03-25T14:18:06;96881.88;;;16.15;36.29
48874;BME280;66155;46.204;5.220;2024-03-25T14:23:08;96878.91;;;15.94;32.41
48874;BME280;66155;46.204;5.220;2024-03-25T14:28:08;96864.22;;;15.75;34.55
48874;BME280;66155;46.204;5.220;2024-03-25T14:33:09;96866.41;;;15.63;34.98
48874;BME280;66155;46.204;5.220;2024-03-25T14:38:09;96851.94;;;15.65;35.15
48874;BME280;66155;46.204;5.220;2024-03-25T14:43:09;96844.09;;;15.63;34.99
48874;BME280;66155;46.204;5.220;2024-03-25T14:48:10;96840.84;;;15.59;34.84
48874;BME280;66155;46.204;5.220;2024-03-25T14:53:10;96817.91;;;15.48;35.02
48874;BME280;66155;46.204;5.220;2024-03-25T14:58:11;96819.03;;;15.58;34.86
48874;BME280;66155;46.204;5.220;2024-03-25T15:03:11;96805.53;;;15.62;35.07
48874;BME280;66155;46.204;5.220;2024-03-25T15:08:11;96805.22;;;15.65;34.72
48874;BME280;66155;46.204;5.220;2024-03-25T15:13:12;96796.78;;;15.71;34.69
48874;BME280;66155;46.204;5.220;2024-03-25T15:18:13;96780.66;;;15.64;34.14
48874;BME280;66155;46.204;5.220;2024-03-25T15:23:13;96771.97;;;15.67;34.58
48874;BME280;66155;46.204;5.220;2024-03-25T15:28:14;96768.41;;;15.67;34.39
48874;BME280;66155;46.204;5.220;2024-03-25T15:33:14;96754.41;;;15.85;34.44
48874;BME280;66155;46.204;5.220;2024-03-25T15:38:15;96758.41;;;15.90;34.27
48874;BME280;66155;46.204;5.220;2024-03-25T15:43:16;96748.78;;;16.04;33.87
48874;BME280;66155;46.204;5.220;2024-03-25T15:48:16;96730.41;;;15.96;33.81
48874;BME280;66155;46.204;5.220;2024-03-25T15:53:16;96728.13;;;15.94;33.22
48874;BME280;66155;46.204;5.220;2024-03-25T15:58:17;96721.06;;;15.93;34.00
48874;BME280;66155;46.204;5.220;2024-03-25T16:03:17;96718.06;;;16.04;33.91
48874;BME280;66155;46.204;5.220;2024-03-25T16:08:18;96716.84;;;15.86;34.00
48874;BME280;66155;46.204;5.220;2024-03-25T16:13:18;96708.09;;;15.64;33.49
48874;BME280;66155;46.204;5.220;2024-03-25T16:18:18;96698.44;;;15.46;34.26
48874;BME280;66155;46.204;5.220;2024-03-25T16:23:19;96699.47;;;15.30;33.20
48874;BME280;66155;46.204;5.220;2024-03-25T16:28:19;96694.97;;;15.08;33.35
48874;BME280;66155;46.204;5.220;2024-03-25T16:33:20;96689.84;;;14.93;34.03
48874;BME280;66155;46.204;5.220;2024-03-25T16:38:20;96689.03;;;14.80;34.17
48874;BME280;66155;46.204;5.220;2024-03-25T16:43:21;96683.09;;;14.70;34.44
48874;BME280;66155;46.204;5.220;2024-03-25T16:48:22;96678.94;;;14.58;34.54
48874;BME280;66155;46.204;5.220;2024-03-25T16:53:22;96684.88;;;14.49;34.68
48874;BME280;66155;46.204;5.220;2024-03-25T16:58:22;96678.38;;;14.41;34.46
48874;BME280;66155;46.204;5.220;2024-03-25T17:03:23;96674.72;;;14.27;34.10
48874;BME280;66155;46.204;5.220;2024-03-25T17:08:23;96674.47;;;14.25;34.65
48874;BME280;66155;46.204;5.220;2024-03-25T17:13:26;96679.13;;;14.17;34.66
48874;BME280;66155;46.204;5.220;2024-03-25T17:18:27;96664.28;;;14.09;34.83
48874;BME280;66155;46.204;5.220;2024-03-25T17:23:27;96666.44;;;13.97;34.89
48874;BME280;66155;46.204;5.220;2024-03-25T17:28:28;96674.38;;;13.88;35.08
48874;BME280;66155;46.204;5.220;2024-03-25T17:33:33;96671.41;;;13.80;35.25
48874;BME280;66155;46.204;5.220;2024-03-25T17:38:34;96658.66;;;13.66;35.60
48874;BME280;66155;46.204;5.220;2024-03-25T17:43:37;96661.03;;;13.57;35.73
48874;BME280;66155;46.204;5.220;2024-03-25T17:48:37;96666.63;;;13.51;36.05
48874;BME280;66155;46.204;5.220;2024-03-25T17:53:37;96669.97;;;13.44;35.92
48874;BME280;66155;46.204;5.220;2024-03-25T17:58:38;96660.97;;;13.32;36.24
48874;BME280;66155;46.204;5.220;2024-03-25T18:03:38;96660.28;;;13.26;36.26
48874;BME280;66155;46.204;5.220;2024-03-25T18:08:39;96666.38;;;13.19;36.35
48874;BME280;66155;46.204;5.220;2024-03-25T18:13:39;96658.84;;;13.14;36.45
48874;BME280;66155;46.204;5.220;2024-03-25T18:18:40;96654.56;;;13.07;36.78
48874;BME280;66155;46.204;5.220;2024-03-25T18:23:40;96643.25;;;13.00;37.00
48874;BME280;66155;46.204;5.220;2024-03-25T18:28:42;96651.38;;;12.98;37.22
48874;BME280;66155;46.204;5.220;2024-03-25T18:33:43;96642.03;;;12.95;37.21
48874;BME280;66155;46.204;5.220;2024-03-25T18:38:43;96645.06;;;12.92;37.48
48874;BME280;66155;46.204;5.220;2024-03-25T18:43:44;96640.56;;;12.89;37.80
48874;BME280;66155;46.204;5.220;2024-03-25T18:48:44;96632.50;;;12.85;37.56
48874;BME280;66155;46.204;5.220;2024-03-25T18:53:45;96635.31;;;12.80;37.92
48874;BME280;66155;46.204;5.220;2024-03-25T18:58:45;96635.06;;;12.78;38.17
48874;BME280;66155;46.204;5.220;2024-03-25T19:03:45;96631.56;;;12.72;38.59
48874;BME280;66155;46.204;5.220;2024-03-25T19:08:46;96629.28;;;12.70;38.67
48874;BME280;66155;46.204;5.220;2024-03-25T19:13:46;96631.09;;;12.68;38.76
48874;BME280;66155;46.204;5.220;2024-03-25T19:18:47;96629.38;;;12.59;39.14
48874;BME280;66155;46.204;5.220;2024-03-25T19:23:47;96635.69;;;12.59;39.39
48874;BME280;66155;46.204;5.220;2024-03-25T19:28:47;96637.97;;;12.55;39.84
48874;BME280;66155;46.204;5.220;2024-03-25T19:33:48;96642.28;;;12.56;39.79
48874;BME280;66155;46.204;5.220;2024-03-25T19:38:48;96650.59;;;12.56;40.20
48874;BME280;66155;46.204;5.220;2024-03-25T19:43:50;96651.34;;;12.57;41.44
48874;BME280;66155;46.204;5.220;2024-03-25T19:48:51;96658.16;;;12.56;40.86
48874;BME280;66155;46.204;5.220;2024-03-25T19:53:51;96652.84;;;12.58;40.78
48874;BME280;66155;46.204;5.220;2024-03-25T19:58:52;96653.59;;;12.58;41.07
48874;BME280;66155;46.204;5.220;2024-03-25T20:03:52;96652.84;;;12.58;41.40
48874;BME280;66155;46.204;5.220;2024-03-25T20:08:54;96663.94;;;12.58;41.86
48874;BME280;66155;46.204;5.220;2024-03-25T20:13:55;96672.81;;;12.56;42.15
48874;BME280;66155;46.204;5.220;2024-03-25T20:18:55;96676.34;;;12.57;42.57
48874;BME280;66155;46.204;5.220;2024-03-25T20:23:56;96679.41;;;12.53;44.31
48874;BME280;66155;46.204;5.220;2024-03-25T20:28:56;96680.41;;;12.50;44.01
48874;BME280;66155;46.204;5.220;2024-03-25T20:33:57;96679.63;;;12.50;44.11
48874;BME280;66155;46.204;5.220;2024-03-25T20:38:57;96674.09;;;12.50;45.47
48874;BME280;66155;46.204;5.220;2024-03-25T20:43:58;96687.50;;;12.46;45.43
48874;BME280;66155;46.204;5.220;2024-03-25T20:48:58;96695.84;;;12.40;46.84
48874;BME280;66155;46.204;5.220;2024-03-25T20:53:59;96707.75;;;12.30;48.35
48874;BME280;66155;46.204;5.220;2024-03-25T20:59:00;96709.53;;;12.22;49.63
48874;BME280;66155;46.204;5.220;2024-03-25T21:04:00;96712.38;;;11.99;52.18
48874;BME280;66155;46.204;5.220;2024-03-25T21:09:01;96713.66;;;11.93;51.89
48874;BME280;66155;46.204;5.220;2024-03-25T21:14:01;96710.13;;;11.81;53.44
48874;BME280;66155;46.204;5.220;2024-03-25T21:19:02;96703.09;;;11.75;52.05
48874;BME280;66155;46.204;5.220;2024-03-25T21:24:02;96689.69;;;11.67;53.01
48874;BME280;66155;46.204;5.220;2024-03-25T21:29:03;96683.16;;;11.54;53.77
48874;BME280;66155;46.204;5.220;2024-03-25T21:34:03;96684.16;;;11.45;54.39
48874;BME280;66155;46.204;5.220;2024-03-25T21:39:03;96700.81;;;11.40;53.62
48874;BME280;66155;46.204;5.220;2024-03-25T21:44:04;96691.47;;;11.37;53.98
48874;BME280;66155;46.204;5.220;2024-03-25T21:49:04;96694.25;;;11.32;55.21
48874;BME280;66155;46.204;5.220;2024-03-25T21:54:05;96696.53;;;11.28;55.02
48874;BME280;66155;46.204;5.220;2024-03-25T21:59:05;96689.19;;;11.24;55.17
48874;BME280;66155;46.204;5.220;2024-03-25T22:04:05;96682.16;;;11.23;54.92
48874;BME280;66155;46.204;5.220;2024-03-25T22:09:06;96688.69;;;11.26;55.01
48874;BME280;66155;46.204;5.220;2024-03-25T22:14:08;96673.59;;;11.21;55.58
48874;BME280;66155;46.204;5.220;2024-03-25T22:19:08;96670.31;;;11.23;55.58
48874;BME280;66155;46.204;5.220;2024-03-25T22:24:09;96675.88;;;11.23;55.21
48874;BME280;66155;46.204;5.220;2024-03-25T22:29:09;96670.84;;;11.16;56.82
48874;BME280;66155;46.204;5.220;2024-03-25T22:34:10;96649.91;;;11.09;57.13
48874;BME280;66155;46.204;5.220;2024-03-25T22:39:10;96650.94;;;11.12;56.47
48874;BME280;66155;46.204;5.220;2024-03-25T22:44:11;96652.66;;;11.09;57.10
48874;BME280;66155;46.204;5.220;2024-03-25T22:49:11;96640.84;;;11.09;57.23
48874;BME280;66155;46.204;5.220;2024-03-25T22:54:11;96636.56;;;11.08;57.42
48874;BME280;66155;46.204;5.220;2024-03-25T22:59:12;96638.06;;;11.03;58.28
48874;BME280;66155;46.204;5.220;2024-03-25T23:04:12;96634.28;;;11.01;57.48
48874;BME280;66155;46.204;5.220;2024-03-25T23:09:12;96629.78;;;11.03;57.54
48874;BME280;66155;46.204;5.220;2024-03-25T23:14:13;96625.72;;;10.99;58.96
48874;BME280;66155;46.204;5.220;2024-03-25T23:19:14;96627.25;;;11.00;57.89
48874;BME280;66155;46.204;5.220;2024-03-25T23:24:14;96637.56;;;10.94;59.95
48874;BME280;66155;46.204;5.220;2024-03-25T23:29:14;96646.84;;;10.85;60.61
48874;BME280;66155;46.204;5.220;2024-03-25T23:34:15;96638.28;;;10.72;62.58
48874;BME280;66155;46.204;5.220;2024-03-25T23:39:15;96633.50;;;10.72;61.54
48874;BME280;66155;46.204;5.220;2024-03-25T23:44:15;96639.78;;;10.73;61.75
48874;BME280;66155;46.204;5.220;2024-03-25T23:49:18;96627.94;;;10.61;66.45
48874;BME280;66155;46.204;5.220;2024-03-25T23:54:18;96624.19;;;10.59;63.24
48874;BME280;66155;46.204;5.220;2024-03-25T23:59:19;96618.88;;;10.55;64.78
